Anaconda, MT

6:36 PM MDT on October 24, 2014 (GMT -0600)
RAWS YANKEE FLAT MT US | Change Station
CLOSE
Current Station
Personal Weather Station
Location: Anaconda, MT
Elevation: 6000 ft
Nearby Weather Stations

Elev 6000 ft 46.16 °N, 113.14 °W | Updated 56 minutes ago

Overcast
Overcast
44 °F
Feels Like 44 °F
N
1
Wind Variable Wind from SE
Gusts 3.0 mph

Today
High -- | Low -- °F
--% Chance of Precip.
Yesterday
High -- | Low -- °F
Precip. -- in
8:01 AM 6:30 PM
New Moon, 1% visible
Pressure 30.08 in
Visibility 10.0 miles
Clouds Few 5500 ft
Mostly Cloudy 7000 ft
Overcast 8000 ft
Windchill 44 °F
Dew Point 41 °F
Humidity 89%
Rainfall 0.07 in
Snow Depth 0 in , 1 in
UV 0 out of 12
Pollen 1.30 out of 12
Air Quality Not available.
Flu Activity No Activity
METAR KBTM 242353Z AUTO 00000KT 10SM -RA FEW055 BKN070 OVC080 08/04 A3012 RMK AO2 RAB22 SLP185 P0000 60001 T00780044 10083 20067 58004

More Conditions Fewer Conditions

Pressure 30.08 in
Visibility 10.0 miles
Clouds Few 5500 ft
Mostly Cloudy 7000 ft
Overcast 8000 ft
Windchill 44 °F
Dew Point 41 °F
Humidity 89%
Rainfall 0.07 in
Snow Depth 0 in , 1 in
UV 0 out of 12
Pollen 1.30 out of 12
Air Quality Not available.
Flu Activity No Activity
METAR KBTM 242353Z AUTO 00000KT 10SM -RA FEW055 BKN070 OVC080 08/04 A3012 RMK AO2 RAB22 SLP185 P0000 60001 T00780044 10083 20067 58004

More Conditions Fewer Conditions

10-Day Weather Forecast

Almanac

Astronomy

Oct. 24, 2014 Rise Set
Actual Time 8:01 AM MDT 6:30 PM MDT
Civil Twilight 7:31 AM MDT 7:00 PM MDT
Nautical Twilight 6:56 AM MDT 7:35 PM MDT
Astronomical Twilight 6:21 AM MDT 8:10 PM MDT
Moon 8:46 AM MDT (10/24) 7:10 PM MDT (10/24)
Length of Visible Light 11h 29m
Length of Day
10h 28m
Tomorrow will be 3m 3s shorter.
New Moon, 1% of the Moon is Illuminated
Today
New Moon
Oct 30
First Quarter
Nov 6
Full
Nov 14
Last Quarter
Nov 22
New

Today's Extremes

State Highs State Lows

Community

WunderPhotos

Upload Photos

1,764,727 photos uploaded!

WunderBlogs® & News

Nearby

Snow Depth

Station Depth Elevation
Barker Lakes 0 in 8250 ft
Warm Springs 1 in 7800 ft
Black Pine 1 in 7210 ft
Combination 0 in 5600 ft
Skalkaho Summit 0 in 7250 ft

Earthquake Activity

City Distance Mag. Time & Date
No recent earthquake activity has been reported nearby.
Minimum magnitude displayed is 2.5.

Coastal Water Temperatures

Place Temperature
No Stations Reporting

Nearby Weather Stations